Weather History for KCOD - January, 2014

Change the Weather History Date:

Sunday, January 26, 2014

  Actual Average Record
Temperature  
Mean Temperature 27 °F -  
Max Temperature 42 °F 35 °F 63 °F (1935)
Min Temperature 12 °F 13 °F -25 °F (1972)
Degree Days  
Heating Degree Days 38    
Moisture  
Dew Point 14 °F    
Average Humidity 58    
Maximum Humidity 93    
Minimum Humidity 33    
Precipitation  
Precipitation 0.00 in - - ()
Sea Level Pressure  
Sea Level Pressure 30.04 in    
Wind  
Wind Speed 11 mph (NNW)    
Max Wind Speed 28 mph    
Max Gust Speed 41 mph    
Visibility 9 miles    
Events      
Averages and records for this station are not official NWS values.
T = Trace of Precipitation, MM = Missing Value Source: NWS Daily Summary

Daily Weather History Graph

Daily Weather History Graph

Search for Another Location

Airport or City:

Trip Planner

Search our weather history database for the weather conditions in past years. The results will help you decide how hot, cold, wet, or windy it might be!

Date:

Astronomy

Jan. 26, 2014 Rise Set
Actual Time 7:40 AM MST 5:16 PM MST
Civil Twilight 7:09 AM MST 5:48 PM MST
Nautical Twilight 6:34 AM MST 6:23 PM MST
Astronomical Twilight 5:59 AM MST 6:58 PM MST
Moon 3:22 AM MST (1/26) 1:07 PM MST (1/26)
Length of Visible Light 10h 39m
Length of Day
9h 36m
Waning Crescent, 23% of the Moon is Illuminated
Jan 26
Waning Crescent
Jan 30
New
Feb 6
First Quarter
Feb 14
Full
Feb 22
Last Quarter

Hourly Weather History & Observations

Time (MST) Temp. Windchill Dew Point Humidity Pressure Visibility Wind Dir Wind Speed Gust Speed Precip Events Conditions
12:15 AM 42.8 °F 37.5 °F 19.4 °F 39% 30.00 in 10.0 mi West 9.2 mph 18.4 mph N/A   Clear
12:35 AM 42.8 °F 35.8 °F 17.6 °F 36% 29.98 in 10.0 mi WSW 13.8 mph 20.7 mph N/A   Clear
12:55 AM 41.0 °F 33.9 °F 17.6 °F 39% 29.97 in 10.0 mi SW 12.7 mph - N/A   Clear
1:15 AM 42.8 °F 38.6 °F 19.4 °F 39% 29.96 in 10.0 mi WSW 6.9 mph - N/A   Clear
1:35 AM 42.8 °F 38.6 °F 19.4 °F 39% 29.95 in 10.0 mi West 6.9 mph - N/A   Clear
1:55 AM 39.2 °F 34.2 °F 19.4 °F 45% 29.95 in 10.0 mi NW 6.9 mph - N/A   Clear
2:15 AM 39.2 °F 34.2 °F 19.4 °F 45% 29.94 in 10.0 mi West 6.9 mph - N/A   Clear
2:35 AM 39.2 °F 35.9 °F 19.4 °F 45% 29.94 in 10.0 mi SSE 4.6 mph - N/A   Clear
2:55 AM 41.0 °F 38.0 °F 19.4 °F 42% 29.93 in 10.0 mi SSW 4.6 mph - N/A   Clear
3:15 AM 39.2 °F 35.0 °F 19.4 °F 45% 29.92 in 10.0 mi WNW 5.8 mph - N/A   Clear
3:35 AM 41.0 °F 35.2 °F 19.4 °F 42% 29.90 in 10.0 mi West 9.2 mph 16.1 mph N/A   Clear
3:55 AM 39.2 °F - 19.4 °F 45% 29.90 in 10.0 mi Calm Calm - N/A   Clear
4:15 AM 39.2 °F 35.0 °F 19.4 °F 45% 29.89 in 10.0 mi West 5.8 mph - N/A   Clear
4:35 AM 42.8 °F 38.0 °F 19.4 °F 39% 29.88 in 10.0 mi West 8.1 mph - N/A   Clear
4:55 AM 41.0 °F 34.7 °F 19.4 °F 42% 29.88 in 10.0 mi West 10.4 mph - N/A   Clear
5:15 AM 42.8 °F 41.1 °F 17.6 °F 36% 29.88 in 10.0 mi NW 3.5 mph - N/A   Clear
5:35 AM 42.8 °F 38.6 °F 17.6 °F 36% 29.88 in 10.0 mi West 6.9 mph - N/A   Clear
5:55 AM 41.0 °F 36.4 °F 17.6 °F 39% 29.88 in 10.0 mi West 6.9 mph - N/A   Clear
6:15 AM 39.2 °F 33.6 °F 17.6 °F 42% 29.88 in 10.0 mi NNW 8.1 mph - N/A   Clear
6:35 AM 39.2 °F 35.9 °F 17.6 °F 42% 29.88 in 10.0 mi NW 4.6 mph - N/A   Clear
6:55 AM 39.2 °F 32.5 °F 15.8 °F 39% 29.89 in 10.0 mi NW 10.4 mph - N/A   Clear
7:15 AM 39.2 °F 33.0 °F 15.8 °F 39% 29.89 in 10.0 mi NW 9.2 mph - N/A   Clear
7:35 AM 37.4 °F - 15.8 °F 41% 29.90 in 10.0 mi Calm Calm - N/A   Clear
7:55 AM 37.4 °F 32.1 °F 17.6 °F 45% 29.90 in 10.0 mi WNW 6.9 mph - N/A   Partly Cloudy
8:15 AM 39.2 °F 35.0 °F 12.2 °F 33% 29.90 in 10.0 mi West 5.8 mph - N/A   Partly Cloudy
8:35 AM 39.2 °F 33.0 °F 12.2 °F 33% 29.91 in 10.0 mi NNW 9.2 mph - N/A   Scattered Clouds
8:55 AM 39.2 °F 33.6 °F 14.0 °F 36% 29.93 in 10.0 mi NNE 8.1 mph - N/A   Mostly Cloudy
9:15 AM 39.2 °F 29.6 °F 15.8 °F 39% 29.94 in 10.0 mi North 19.6 mph 31.1 mph N/A   Overcast
9:35 AM 35.6 °F 24.2 °F 24.8 °F 65% 29.96 in 10.0 mi North 21.9 mph 33.4 mph N/A   Overcast
9:55 AM 32.0 °F 19.8 °F 26.6 °F 80% 29.98 in 10.0 mi North 20.7 mph 28.8 mph N/A   Mostly Cloudy
10:15 AM 33.8 °F 24.3 °F 28.4 °F 81% 30.00 in 8.0 mi North 13.8 mph 25.3 mph N/A   Mostly Cloudy
10:55 AM 32.0 °F 22.1 °F 28.4 °F 87% 30.03 in 2.5 mi North 13.8 mph 21.9 mph N/A   Overcast
11:15 AM 30.2 °F 18.1 °F 28.4 °F 93% 30.03 in 2.5 mi North 18.4 mph 25.3 mph N/A   Overcast
11:35 AM 30.2 °F 18.9 °F 28.4 °F 93% 30.03 in 3.0 mi North 16.1 mph 25.3 mph N/A   Overcast
11:55 AM 30.2 °F 18.5 °F 28.4 °F 93% 30.03 in 2.5 mi North 17.3 mph 27.6 mph N/A   Overcast
12:15 PM 30.2 °F 16.2 °F 28.4 °F 93% 30.04 in 1.5 mi North 25.3 mph 34.5 mph N/A   Overcast
12:35 PM 28.4 °F 14.1 °F 26.6 °F 93% 30.05 in 1.2 mi North 24.2 mph 34.5 mph N/A   Overcast
12:55 PM 26.6 °F 10.8 °F 24.8 °F 93% 30.07 in 0.8 mi North 27.6 mph 41.4 mph N/A   Overcast
1:15 PM 26.6 °F 11.1 °F 24.8 °F 93% 30.09 in 1.0 mi North 26.5 mph 35.7 mph N/A   Overcast
1:35 PM 24.8 °F 11.1 °F 21.2 °F 86% 30.11 in 0.8 mi North 18.4 mph 27.6 mph N/A   Overcast
1:55 PM 24.8 °F 9.6 °F 21.2 °F 86% 30.12 in 2.5 mi North 23.0 mph 31.1 mph N/A   Mostly Cloudy
2:15 PM 23.0 °F 9.6 °F 19.4 °F 86% 30.11 in 4.0 mi North 16.1 mph 29.9 mph N/A   Mostly Cloudy
2:35 PM 21.2 °F 3.9 °F 17.6 °F 86% 30.12 in 10.0 mi North 26.5 mph 32.2 mph N/A   Overcast
2:55 PM 21.2 °F 8.9 °F 15.8 °F 80% 30.13 in 10.0 mi North 12.7 mph - N/A   Overcast
3:15 PM 21.2 °F 7.3 °F 12.2 °F 68% 30.14 in 10.0 mi North 16.1 mph 20.7 mph N/A   Overcast
3:35 PM 21.2 °F 6.8 °F 10.4 °F 63% 30.14 in 10.0 mi NNW 17.3 mph 24.2 mph N/A   Overcast
3:55 PM 21.2 °F 8.9 °F 10.4 °F 63% 30.14 in 10.0 mi NNW 12.7 mph 20.7 mph N/A   Overcast
4:15 PM 21.2 °F 8.9 °F 8.6 °F 58% 30.14 in 10.0 mi North 12.7 mph - N/A   Overcast
4:35 PM 19.4 °F 5.5 °F 6.8 °F 58% 30.15 in 10.0 mi North 15.0 mph 23.0 mph N/A   Overcast
4:55 PM 19.4 °F 5.0 °F 6.8 °F 58% 30.16 in 10.0 mi North 16.1 mph 23.0 mph N/A   Overcast
5:15 PM 17.6 °F 3.2 °F 6.8 °F 63% 30.16 in 10.0 mi North 15.0 mph - N/A   Overcast
5:35 PM 17.6 °F 5.7 °F 5.0 °F 58% 30.17 in 10.0 mi North 10.4 mph - N/A   Overcast
5:55 PM 17.6 °F 3.2 °F 3.2 °F 53% 30.18 in 10.0 mi North 15.0 mph - N/A   Overcast
6:15 PM 15.8 °F 2.7 °F 1.4 °F 53% 30.18 in 10.0 mi North 11.5 mph - N/A   Overcast
6:35 PM 15.8 °F 2.7 °F 1.4 °F 53% 30.18 in 10.0 mi North 11.5 mph - N/A   Overcast
6:55 PM 15.8 °F 2.7 °F 1.4 °F 53% 30.18 in 10.0 mi North 11.5 mph - N/A   Overcast
7:15 PM 15.8 °F 2.1 °F 1.4 °F 53% 30.18 in 10.0 mi North 12.7 mph - N/A   Overcast
7:35 PM 15.8 °F 1.4 °F 1.4 °F 53% 30.19 in 10.0 mi North 13.8 mph - N/A   Overcast
7:55 PM 15.8 °F 4.2 °F 1.4 °F 53% 30.18 in 10.0 mi North 9.2 mph - N/A   Overcast
8:15 PM 14.0 °F 2.9 °F 1.4 °F 57% 30.18 in 10.0 mi NNE 8.1 mph - N/A   Overcast
8:55 PM 14.0 °F 3.9 °F 1.4 °F 57% 30.17 in 10.0 mi North 6.9 mph - N/A   Overcast
9:35 PM 14.0 °F 2.0 °F 3.2 °F 62% 30.17 in 10.0 mi North 9.2 mph - N/A   Overcast
9:55 PM 14.0 °F 6.5 °F 3.2 °F 62% 30.16 in 10.0 mi North 4.6 mph - N/A   Overcast
10:15 PM 14.0 °F 5.1 °F 1.4 °F 57% 30.15 in 10.0 mi NNE 5.8 mph - N/A   Overcast
10:35 PM 12.2 °F -0.2 °F 3.2 °F 67% 30.15 in 10.0 mi NNE 9.2 mph - N/A   Overcast
10:55 PM 12.2 °F 6.1 °F 3.2 °F 67% 30.14 in 10.0 mi NNE 3.5 mph - N/A   Overcast
11:15 PM 12.2 °F 2.9 °F 3.2 °F 67% 30.14 in 10.0 mi NNE 5.8 mph - N/A   Overcast
11:35 PM 12.2 °F 1.7 °F 3.2 °F 67% 30.14 in 10.0 mi NNE 6.9 mph - N/A   Overcast
11:55 PM 12.2 °F 1.7 °F 3.2 °F 67% 30.13 in 10.0 mi NE 6.9 mph - N/A   Overcast